createdAt,value
2023-05-09T00:02:07.904Z,84.29
2023-05-09T00:04:35.364Z,83.73
2023-05-09T00:07:02.137Z,83.97
2023-05-09T00:09:28.772Z,83.98
2023-05-09T00:11:55.554Z,84.51
2023-05-09T00:14:22.140Z,85.52
2023-05-09T00:16:49.205Z,85.86
2023-05-09T00:19:15.959Z,85.50
2023-05-09T00:21:42.743Z,85.57
2023-05-09T00:24:09.290Z,86.25
2023-05-09T00:26:35.995Z,84.70
2023-05-09T00:29:02.650Z,85.42
2023-05-09T00:31:29.435Z,86.55
2023-05-09T00:33:56.080Z,87.12
2023-05-09T00:36:23.349Z,87.94
2023-05-09T00:38:50.064Z,88.18
2023-05-09T00:41:16.785Z,86.78
2023-05-09T00:43:43.384Z,86.05
2023-05-09T00:46:10.179Z,86.31
2023-05-09T00:48:36.852Z,84.92
2023-05-09T00:51:04.864Z,85.68
2023-05-09T00:53:31.653Z,86.10
2023-05-09T00:56:00.286Z,86.73
2023-05-09T00:58:27.511Z,86.94
2023-05-09T01:00:54.243Z,87.06
2023-05-09T01:03:21.170Z,87.31
2023-05-09T01:06:26.568Z,86.72
2023-05-09T01:09:01.248Z,86.45
2023-05-09T01:12:05.412Z,86.43
2023-05-09T01:14:50.589Z,85.92
2023-05-09T01:17:46.828Z,86.28
2023-05-09T01:20:24.358Z,86.58
2023-05-09T01:23:01.995Z,87.35
2023-05-09T01:25:38.034Z,86.81
2023-05-09T01:28:14.303Z,88.16
2023-05-09T01:30:45.813Z,88.56
2023-05-09T01:33:18.093Z,89.07
2023-05-09T01:35:52.147Z,88.29
2023-05-09T01:38:23.079Z,88.23
2023-05-09T01:40:54.436Z,88.63
2023-05-09T01:43:23.595Z,88.55
2023-05-09T01:45:52.460Z,88.41
2023-05-09T01:48:21.706Z,87.45
2023-05-09T01:50:49.089Z,87.56
2023-05-09T01:53:17.766Z,88.48
2023-05-09T01:55:45.925Z,88.37
2023-05-09T01:58:13.409Z,88.29
2023-05-09T02:00:41.114Z,87.95
2023-05-09T02:03:08.974Z,87.11
2023-05-09T02:05:37.278Z,87.90
2023-05-09T02:08:04.157Z,88.22
2023-05-09T02:10:34.256Z,87.85
2023-05-09T02:13:01.268Z,87.82
2023-05-09T02:15:29.523Z,87.18
2023-05-09T02:17:56.695Z,85.85
2023-05-09T02:20:23.381Z,85.49
2023-05-09T02:22:50.644Z,85.63
2023-05-09T02:25:18.596Z,86.81
2023-05-09T02:27:46.649Z,87.61
2023-05-09T02:30:23.320Z,88.08
2023-05-09T02:32:53.736Z,87.65
2023-05-09T02:35:23.026Z,86.64
2023-05-09T02:37:49.912Z,86.33
2023-05-09T02:40:17.779Z,86.15
2023-05-09T02:42:44.594Z,86.45
2023-05-09T02:45:11.505Z,87.04
2023-05-09T02:47:38.998Z,87.18
2023-05-09T02:50:06.456Z,87.48
2023-05-09T02:52:35.504Z,86.94
2023-05-09T02:55:03.054Z,87.78
2023-05-09T02:57:31.147Z,87.61
2023-05-09T02:59:57.787Z,86.90
2023-05-09T03:02:24.811Z,88.00
2023-05-09T03:04:51.820Z,88.07
2023-05-09T03:07:18.845Z,88.08
2023-05-09T03:09:45.575Z,88.74
2023-05-09T03:12:12.903Z,89.08
2023-05-09T03:14:39.602Z,88.45
2023-05-09T03:17:06.309Z,88.56
2023-05-09T03:19:35.588Z,88.91
2023-05-09T03:22:02.479Z,89.80
2023-05-09T03:24:32.377Z,88.17
2023-05-09T03:26:59.053Z,87.99
2023-05-09T03:29:25.969Z,87.29
2023-05-09T03:31:54.045Z,88.51
2023-05-09T03:34:20.707Z,88.29
2023-05-09T03:36:47.910Z,89.50
2023-05-09T03:39:15.354Z,86.50
2023-05-09T03:41:45.269Z,86.67
2023-05-09T03:44:12.665Z,87.59
2023-05-09T03:46:39.311Z,87.69
2023-05-09T03:49:06.637Z,87.63
2023-05-09T03:51:34.476Z,87.58
2023-05-09T03:54:05.024Z,88.10
2023-05-09T03:56:32.444Z,88.35
2023-05-09T03:58:59.670Z,88.82
2023-05-09T04:01:27.619Z,88.66
2023-05-09T04:03:57.726Z,88.59
2023-05-09T04:06:25.812Z,88.82
2023-05-09T04:08:52.599Z,88.22
2023-05-09T04:11:19.264Z,87.37
2023-05-09T04:13:47.643Z,87.20
2023-05-09T04:16:25.163Z,87.65
2023-05-09T04:18:51.924Z,87.78
2023-05-09T04:21:18.548Z,88.22
2023-05-09T04:23:48.542Z,88.96
2023-05-09T04:26:17.989Z,89.08
2023-05-09T04:28:47.811Z,88.57
2023-05-09T04:31:16.258Z,89.44
2023-05-09T04:33:46.849Z,89.21
2023-05-09T04:36:13.553Z,88.33
2023-05-09T04:38:40.682Z,88.84
2023-05-09T04:41:11.810Z,89.38
2023-05-09T04:43:38.463Z,89.62
2023-05-09T04:46:07.796Z,89.64
2023-05-09T04:48:35.959Z,89.46
2023-05-09T04:51:02.724Z,88.53
2023-05-09T04:53:29.627Z,88.72
2023-05-09T04:55:57.184Z,87.54
2023-05-09T04:58:25.643Z,87.70
2023-05-09T05:00:53.292Z,88.49
2023-05-09T05:03:20.113Z,88.53
2023-05-09T05:05:47.130Z,88.91
2023-05-09T05:08:14.057Z,88.44
2023-05-09T05:10:42.142Z,88.26
2023-05-09T05:13:11.896Z,88.00
2023-05-09T05:15:43.310Z,88.17
2023-05-09T05:18:10.728Z,88.65
2023-05-09T05:20:41.607Z,88.13
2023-05-09T05:23:09.064Z,88.59
2023-05-09T05:25:35.742Z,88.66
2023-05-09T05:28:02.554Z,89.58
2023-05-09T05:30:29.410Z,88.75
2023-05-09T05:32:56.299Z,89.11
2023-05-09T05:35:24.658Z,89.52
2023-05-09T05:37:52.763Z,90.70
2023-05-09T05:40:19.910Z,90.00
2023-05-09T05:42:48.607Z,90.42
2023-05-09T05:45:16.589Z,90.70
2023-05-09T05:47:48.039Z,90.31
2023-05-09T05:50:15.114Z,90.19
2023-05-09T05:52:42.443Z,89.79
2023-05-09T05:55:13.111Z,90.40
2023-05-09T05:57:40.616Z,90.21
2023-05-09T06:00:12.313Z,90.26
2023-05-09T06:02:47.944Z,90.89
2023-05-09T06:05:22.602Z,91.38
2023-05-09T06:07:50.466Z,91.58
2023-05-09T06:10:17.252Z,90.92
2023-05-09T06:12:45.540Z,90.99
2023-05-09T06:15:12.551Z,89.81
2023-05-09T06:17:43.147Z,89.26
2023-05-09T06:20:10.086Z,90.85
2023-05-09T06:22:36.740Z,89.92
2023-05-09T06:25:03.516Z,88.94
2023-05-09T06:27:30.429Z,89.02
2023-05-09T06:29:57.148Z,87.43
2023-05-09T06:32:25.066Z,86.91
2023-05-09T06:34:52.688Z,87.33
2023-05-09T06:37:19.369Z,87.98
2023-05-09T06:39:46.005Z,88.38
2023-05-09T06:42:12.821Z,89.27
2023-05-09T06:44:39.807Z,89.97
2023-05-09T06:47:06.532Z,89.48
2023-05-09T06:49:33.314Z,89.40
2023-05-09T06:51:59.908Z,89.88
2023-05-09T06:54:26.580Z,89.42
2023-05-09T06:56:53.578Z,90.38
2023-05-09T06:59:20.408Z,88.65
2023-05-09T07:01:47.051Z,88.84
2023-05-09T07:04:13.745Z,86.80
2023-05-09T07:06:40.430Z,86.47
2023-05-09T07:09:07.151Z,86.28
2023-05-09T07:11:37.644Z,84.71
2023-05-09T07:14:04.477Z,84.42
2023-05-09T07:16:32.065Z,83.13
2023-05-09T07:18:59.321Z,83.77
2023-05-09T07:21:26.028Z,82.65
2023-05-09T07:23:52.743Z,84.22
2023-05-09T07:26:19.454Z,85.97
2023-05-09T07:28:46.153Z,85.94
2023-05-09T07:31:12.767Z,85.69
2023-05-09T07:33:39.666Z,86.44
2023-05-09T07:36:06.412Z,86.81
2023-05-09T07:38:33.136Z,86.15
2023-05-09T07:40:59.715Z,88.07
2023-05-09T07:43:27.253Z,89.07
2023-05-09T07:45:54.092Z,89.10
2023-05-09T07:48:20.835Z,88.74
2023-05-09T07:50:47.560Z,88.62
2023-05-09T07:53:14.321Z,88.52
2023-05-09T07:55:41.118Z,86.59
2023-05-09T07:58:07.909Z,86.32
2023-05-09T08:00:34.532Z,85.42
2023-05-09T08:03:01.873Z,86.63
2023-05-09T08:05:28.878Z,83.42
2023-05-09T08:07:55.571Z,84.10
2023-05-09T08:10:23.268Z,86.90
2023-05-09T08:12:50.062Z,84.44
2023-05-09T08:15:17.124Z,82.67
2023-05-09T08:17:44.396Z,82.88
2023-05-09T08:20:12.008Z,82.92
2023-05-09T08:22:39.790Z,83.59
2023-05-09T08:25:08.183Z,83.92
2023-05-09T08:27:35.001Z,82.72
2023-05-09T08:30:01.684Z,83.37
2023-05-09T08:32:28.467Z,84.38
2023-05-09T08:34:55.174Z,83.91
2023-05-09T08:37:21.952Z,83.86
2023-05-09T08:39:48.631Z,82.96
2023-05-09T08:42:18.812Z,83.59
2023-05-09T08:44:45.689Z,82.63
2023-05-09T08:47:13.401Z,82.19
2023-05-09T08:49:41.015Z,82.37
2023-05-09T08:52:08.282Z,81.56
2023-05-09T08:54:35.941Z,81.80
2023-05-09T08:57:03.178Z,81.78
2023-05-09T08:59:30.969Z,79.84
2023-05-09T09:01:58.418Z,80.68
2023-05-09T09:04:25.122Z,81.75
2023-05-09T09:06:53.870Z,80.12
2023-05-09T09:09:21.427Z,79.61
2023-05-09T09:11:48.441Z,80.37
2023-05-09T09:14:25.596Z,79.82
2023-05-09T09:16:54.607Z,78.47
2023-05-09T09:19:22.731Z,79.97
2023-05-09T09:21:54.002Z,79.19
2023-05-09T09:24:23.068Z,76.89
2023-05-09T09:26:51.478Z,78.37
2023-05-09T09:29:18.965Z,79.35
2023-05-09T09:31:46.688Z,79.63
2023-05-09T09:34:20.341Z,79.15
2023-05-09T09:36:48.460Z,79.16
2023-05-09T09:39:15.933Z,78.45
2023-05-09T09:41:44.646Z,78.03
2023-05-09T09:44:16.734Z,78.80
2023-05-09T09:46:45.035Z,75.70
2023-05-09T09:49:13.432Z,75.36
2023-05-09T09:51:41.060Z,74.24
2023-05-09T09:54:12.736Z,74.30
2023-05-09T09:56:41.697Z,79.52
2023-05-09T09:59:18.840Z,74.56
2023-05-09T10:02:04.941Z,73.77
2023-05-09T10:04:39.073Z,74.60
2023-05-09T10:07:08.419Z,75.14
2023-05-09T10:09:37.983Z,74.51
2023-05-09T10:12:06.579Z,75.14
2023-05-09T10:14:35.638Z,74.65
2023-05-09T10:17:05.067Z,75.86
2023-05-09T10:19:33.186Z,76.27
2023-05-09T10:22:05.998Z,77.55
2023-05-09T10:24:43.622Z,75.29
2023-05-09T10:27:11.778Z,77.60
2023-05-09T10:29:44.521Z,77.85
2023-05-09T10:32:40.420Z,78.93
2023-05-09T10:35:10.776Z,75.64
2023-05-09T10:37:37.800Z,75.95
2023-05-09T10:40:05.288Z,76.40
2023-05-09T10:42:32.238Z,76.26
2023-05-09T10:44:58.920Z,76.95
2023-05-09T10:47:28.010Z,74.48
2023-05-09T10:49:55.331Z,75.59
2023-05-09T10:52:25.046Z,77.73
2023-05-09T10:55:02.131Z,76.13
2023-05-09T10:57:30.622Z,75.30
2023-05-09T10:59:58.840Z,75.31
2023-05-09T11:02:29.499Z,71.93
2023-05-09T11:05:16.737Z,74.00
2023-05-09T11:07:43.800Z,72.18
2023-05-09T11:10:16.675Z,72.35
2023-05-09T11:12:58.047Z,72.81
2023-05-09T11:15:27.417Z,71.55
2023-05-09T11:18:12.854Z,69.14
2023-05-09T11:20:43.965Z,71.51
2023-05-09T11:23:11.841Z,70.07
2023-05-09T11:25:42.218Z,71.25
2023-05-09T11:28:08.858Z,72.34
2023-05-09T11:30:40.159Z,71.24
2023-05-09T11:33:21.110Z,70.85
2023-05-09T11:35:48.274Z,69.43
2023-05-09T11:38:21.324Z,72.82
2023-05-09T11:40:48.634Z,70.63
2023-05-09T11:43:15.821Z,70.02
2023-05-09T11:45:42.873Z,68.73
2023-05-09T11:48:10.416Z,68.91
2023-05-09T11:50:37.370Z,67.89
2023-05-09T11:53:04.003Z,68.15
2023-05-09T11:55:32.557Z,71.18
2023-05-09T11:57:59.470Z,67.58
2023-05-09T12:00:26.601Z,70.24
2023-05-09T12:02:54.055Z,72.38
2023-05-09T12:05:22.943Z,72.01
2023-05-09T12:07:49.806Z,71.58
2023-05-09T12:10:20.166Z,71.38
2023-05-09T12:12:50.969Z,68.69
2023-05-09T12:15:19.338Z,68.77
2023-05-09T12:17:48.171Z,67.94
2023-05-09T12:20:16.536Z,70.17
2023-05-09T12:22:44.129Z,67.99
2023-05-09T12:25:12.083Z,66.97
2023-05-09T12:27:40.481Z,67.03
2023-05-09T12:30:10.255Z,67.80
2023-05-09T12:32:39.499Z,67.15
2023-05-09T12:35:10.930Z,68.35
2023-05-09T12:37:38.848Z,69.53
2023-05-09T12:40:15.424Z,68.52
2023-05-09T12:42:46.049Z,72.74
2023-05-09T12:45:13.455Z,74.19
2023-05-09T12:47:41.940Z,73.02
2023-05-09T12:50:11.787Z,72.45
2023-05-09T12:52:54.169Z,72.27
2023-05-09T12:55:27.956Z,72.63
2023-05-09T12:58:02.695Z,71.37
2023-05-09T13:00:41.365Z,69.48
2023-05-09T13:03:31.247Z,68.83
2023-05-09T13:06:00.036Z,68.18
2023-05-09T13:08:27.956Z,67.72
2023-05-09T13:11:04.024Z,66.49
2023-05-09T13:13:41.909Z,68.78
2023-05-09T13:16:10.380Z,69.56
2023-05-09T13:18:38.365Z,69.37
2023-05-09T13:21:05.042Z,69.44
2023-05-09T13:23:31.739Z,69.52
2023-05-09T13:25:58.348Z,68.36
2023-05-09T13:28:25.177Z,67.57
2023-05-09T13:30:51.846Z,68.52
2023-05-09T13:33:25.945Z,70.51
2023-05-09T13:35:53.768Z,72.04
2023-05-09T13:38:20.453Z,72.09
2023-05-09T13:40:47.095Z,72.27
2023-05-09T13:43:13.666Z,74.09
2023-05-09T13:45:40.551Z,73.31
2023-05-09T13:48:07.197Z,74.44
2023-05-09T13:50:34.326Z,72.80
2023-05-09T13:53:01.047Z,72.68
2023-05-09T13:55:27.823Z,73.06
2023-05-09T13:57:54.958Z,73.23
2023-05-09T14:00:22.283Z,72.96
2023-05-09T14:02:49.003Z,73.11
2023-05-09T14:05:17.041Z,71.54
2023-05-09T14:07:44.997Z,71.93
2023-05-09T14:10:12.608Z,71.72
2023-05-09T14:12:40.599Z,73.16
2023-05-09T14:15:08.285Z,72.68
2023-05-09T14:17:35.132Z,73.52
2023-05-09T14:20:02.196Z,73.04
2023-05-09T14:22:28.762Z,72.08
2023-05-09T14:24:57.275Z,73.37
2023-05-09T14:27:25.129Z,75.41
2023-05-09T14:29:51.945Z,74.08
2023-05-09T14:32:18.568Z,73.85
2023-05-09T14:34:45.993Z,73.72
2023-05-09T14:37:15.466Z,72.60
2023-05-09T14:39:43.542Z,71.19
2023-05-09T14:42:11.733Z,71.12
2023-05-09T14:44:39.195Z,72.29
2023-05-09T14:47:06.141Z,72.84
2023-05-09T14:49:33.098Z,73.56
2023-05-09T14:52:00.173Z,72.77
2023-05-09T14:54:27.064Z,72.70
2023-05-09T14:56:53.720Z,74.73
2023-05-09T14:59:23.537Z,73.01
2023-05-09T15:01:52.632Z,73.65
2023-05-09T15:04:19.437Z,73.95
2023-05-09T15:06:46.289Z,73.77
2023-05-09T15:09:14.705Z,74.04
2023-05-09T15:11:48.193Z,75.49
2023-05-09T15:14:16.558Z,71.73
2023-05-09T15:16:43.617Z,70.77
2023-05-09T15:19:10.461Z,71.22
2023-05-09T15:21:37.088Z,74.10
2023-05-09T15:24:04.922Z,75.59
2023-05-09T15:26:32.040Z,74.41
2023-05-09T15:28:58.774Z,74.32
2023-05-09T15:31:25.963Z,74.23
2023-05-09T15:33:52.915Z,73.95
2023-05-09T15:36:19.606Z,75.75
2023-05-09T15:38:49.377Z,75.98
2023-05-09T15:41:17.248Z,75.54
2023-05-09T15:43:44.020Z,75.26
2023-05-09T15:46:11.143Z,75.40
2023-05-09T15:48:37.764Z,75.64
2023-05-09T15:51:04.776Z,75.50
2023-05-09T15:53:31.647Z,75.87
2023-05-09T15:55:58.300Z,75.71
2023-05-09T15:58:25.169Z,77.92
2023-05-09T16:00:51.956Z,78.77
2023-05-09T16:03:19.411Z,78.66
2023-05-09T16:05:46.320Z,79.43
2023-05-09T16:08:13.129Z,80.96
2023-05-09T16:10:40.788Z,81.45
2023-05-09T16:13:07.800Z,82.04
2023-05-09T16:15:35.149Z,81.05
2023-05-09T16:18:01.820Z,81.80
2023-05-09T16:20:28.515Z,81.56
2023-05-09T16:22:55.183Z,81.08
2023-05-09T16:25:21.974Z,82.72
2023-05-09T16:27:48.612Z,82.59
2023-05-09T16:30:16.137Z,82.34
2023-05-09T16:32:43.349Z,82.43
2023-05-09T16:35:10.292Z,82.72
2023-05-09T16:37:37.485Z,82.94
2023-05-09T16:40:04.841Z,84.63
2023-05-09T16:42:31.682Z,84.31
2023-05-09T16:44:58.337Z,85.84
2023-05-09T16:47:25.061Z,86.45
2023-05-09T16:49:51.993Z,88.87
2023-05-09T16:52:19.217Z,89.67
2023-05-09T16:54:46.151Z,89.14
2023-05-09T16:57:13.287Z,88.72
2023-05-09T16:59:40.296Z,90.19
2023-05-09T17:02:07.182Z,89.15
2023-05-09T17:04:36.757Z,90.56
2023-05-09T17:07:04.264Z,89.41
2023-05-09T17:09:30.856Z,90.21
2023-05-09T17:11:57.546Z,91.37
2023-05-09T17:14:24.572Z,91.54
2023-05-09T17:16:51.702Z,91.69
2023-05-09T17:19:20.527Z,92.17
2023-05-09T17:21:47.328Z,91.45
2023-05-09T17:24:13.981Z,92.22
2023-05-09T17:26:40.719Z,91.47
2023-05-09T17:29:07.406Z,92.29
2023-05-09T17:31:34.178Z,91.53
2023-05-09T17:34:01.419Z,91.48
2023-05-09T17:36:28.169Z,91.80
2023-05-09T17:38:54.751Z,91.21
2023-05-09T17:41:21.982Z,91.84
2023-05-09T17:43:48.700Z,91.95
2023-05-09T17:46:15.525Z,91.72
2023-05-09T17:48:42.537Z,92.75
2023-05-09T17:51:09.195Z,92.50
2023-05-09T17:53:35.830Z,92.43
2023-05-09T17:56:02.962Z,92.08
2023-05-09T17:58:30.070Z,93.07
2023-05-09T18:00:58.618Z,93.32
2023-05-09T18:03:32.367Z,94.14
2023-05-09T18:06:00.345Z,94.56
2023-05-09T18:08:27.534Z,94.47
2023-05-09T18:10:57.214Z,94.11
2023-05-09T18:13:24.292Z,94.54
2023-05-09T18:15:51.379Z,94.00
2023-05-09T18:18:18.234Z,92.74
2023-05-09T18:20:47.102Z,93.82
2023-05-09T18:23:14.965Z,93.46
2023-05-09T18:25:42.019Z,93.33
2023-05-09T18:28:08.959Z,93.97
2023-05-09T18:30:36.226Z,94.93
2023-05-09T18:33:03.188Z,95.65
2023-05-09T18:35:30.216Z,95.45
2023-05-09T18:37:57.073Z,94.97
2023-05-09T18:40:23.889Z,95.80
2023-05-09T18:42:50.435Z,95.63
2023-05-09T18:45:17.094Z,95.70
2023-05-09T18:47:43.699Z,95.11
2023-05-09T18:50:11.113Z,95.04
2023-05-09T18:52:37.689Z,94.92
2023-05-09T18:55:05.869Z,95.84
2023-05-09T18:57:33.854Z,96.14
2023-05-09T19:00:00.700Z,94.53
2023-05-09T19:02:27.575Z,93.80
2023-05-09T19:04:54.353Z,93.86
2023-05-09T19:07:21.051Z,93.76
2023-05-09T19:09:47.754Z,94.92
2023-05-09T19:12:16.324Z,94.55
2023-05-09T19:14:43.335Z,93.85
2023-05-09T19:17:10.839Z,94.38
2023-05-09T19:19:37.658Z,94.28
2023-05-09T19:22:04.863Z,94.02
2023-05-09T19:24:32.969Z,94.58
2023-05-09T19:26:59.612Z,95.15
2023-05-09T19:29:26.355Z,95.86
2023-05-09T19:31:53.049Z,95.25
2023-05-09T19:34:19.807Z,96.48
2023-05-09T19:36:46.449Z,96.94
2023-05-09T19:39:13.185Z,97.61
2023-05-09T19:41:40.644Z,96.79
2023-05-09T19:44:07.398Z,97.37
2023-05-09T19:46:35.259Z,96.87
2023-05-09T19:49:02.101Z,94.66
2023-05-09T19:51:29.648Z,94.81
2023-05-09T19:53:56.474Z,94.62
2023-05-09T19:56:23.181Z,94.24
2023-05-09T19:58:50.376Z,94.89
2023-05-09T20:01:19.059Z,92.73
2023-05-09T20:03:47.001Z,91.79
2023-05-09T20:06:13.815Z,91.83
2023-05-09T20:08:40.754Z,91.76
2023-05-09T20:11:07.849Z,92.35
2023-05-09T20:13:34.745Z,91.39
2023-05-09T20:16:03.241Z,92.91
2023-05-09T20:18:33.217Z,92.64
2023-05-09T20:21:03.875Z,93.78
2023-05-09T20:23:31.131Z,93.34
2023-05-09T20:25:57.918Z,94.34
2023-05-09T20:28:24.703Z,94.82
2023-05-09T20:30:51.398Z,95.18
2023-05-09T20:33:19.066Z,95.80
2023-05-09T20:35:45.828Z,95.02
2023-05-09T20:38:12.642Z,95.64
2023-05-09T20:40:40.361Z,95.55
2023-05-09T20:43:07.137Z,95.50
2023-05-09T20:45:33.971Z,95.87
2023-05-09T20:48:01.738Z,95.37
2023-05-09T20:50:28.748Z,95.55
2023-05-09T20:52:55.629Z,95.48
2023-05-09T20:55:22.450Z,95.57
2023-05-09T20:57:49.178Z,94.06
2023-05-09T21:00:16.550Z,94.47
2023-05-09T21:02:43.473Z,95.56
2023-05-09T21:05:10.400Z,95.59
2023-05-09T21:07:37.092Z,94.52
2023-05-09T21:10:04.029Z,94.67
2023-05-09T21:12:34.004Z,94.72
2023-05-09T21:15:03.115Z,95.22
2023-05-09T21:17:29.726Z,94.33
2023-05-09T21:19:56.622Z,95.11
2023-05-09T21:22:23.812Z,95.44
2023-05-09T21:24:51.006Z,95.76
2023-05-09T21:27:17.779Z,96.63
2023-05-09T21:29:44.589Z,95.40
2023-05-09T21:32:11.198Z,95.82
2023-05-09T21:34:37.903Z,94.54
2023-05-09T21:37:04.485Z,95.07
2023-05-09T21:39:32.536Z,94.99
2023-05-09T21:42:00.113Z,96.10
2023-05-09T21:44:26.797Z,95.97
2023-05-09T21:46:53.487Z,95.75
2023-05-09T21:49:21.652Z,95.25
2023-05-09T21:51:48.330Z,96.02
2023-05-09T21:54:15.256Z,96.40
2023-05-09T21:56:42.677Z,96.51
2023-05-09T21:59:09.438Z,97.70
2023-05-09T22:01:36.865Z,97.10
2023-05-09T22:04:03.822Z,95.27
2023-05-09T22:06:31.305Z,94.35
2023-05-09T22:08:58.021Z,95.30
2023-05-09T22:11:24.887Z,94.97
2023-05-09T22:13:52.033Z,95.90
2023-05-09T22:16:18.702Z,94.32
2023-05-09T22:18:45.413Z,94.85
2023-05-09T22:21:12.676Z,95.13
2023-05-09T22:23:39.445Z,95.07
2023-05-09T22:26:06.486Z,95.13
2023-05-09T22:28:33.157Z,93.98
2023-05-09T22:30:59.758Z,94.55
2023-05-09T22:33:26.414Z,95.47
2023-05-09T22:35:53.036Z,94.71
2023-05-09T22:38:19.688Z,95.11
2023-05-09T22:40:46.351Z,94.92
2023-05-09T22:43:13.051Z,94.30
2023-05-09T22:45:39.700Z,93.96
2023-05-09T22:48:06.694Z,94.40
2023-05-09T22:50:33.366Z,94.92
2023-05-09T22:53:00.344Z,95.50
2023-05-09T22:55:27.259Z,95.65
2023-05-09T22:57:53.982Z,94.26
2023-05-09T23:00:20.686Z,95.04
2023-05-09T23:02:47.671Z,94.46
2023-05-09T23:05:14.322Z,94.81
2023-05-09T23:07:41.034Z,94.32
2023-05-09T23:10:08.077Z,94.23
2023-05-09T23:12:34.792Z,93.90
2023-05-09T23:15:01.469Z,93.79
2023-05-09T23:17:28.184Z,93.41
2023-05-09T23:19:54.782Z,93.35
2023-05-09T23:22:21.637Z,92.51
2023-05-09T23:24:48.448Z,94.38
2023-05-09T23:27:15.197Z,95.18
2023-05-09T23:29:41.833Z,94.67
2023-05-09T23:32:08.577Z,94.43
2023-05-09T23:34:36.684Z,92.76
2023-05-09T23:37:04.224Z,93.63
2023-05-09T23:39:31.527Z,94.14
2023-05-09T23:41:58.289Z,94.29
2023-05-09T23:44:25.597Z,93.13
2023-05-09T23:46:52.415Z,94.24
2023-05-09T23:49:19.134Z,92.90
2023-05-09T23:51:45.777Z,93.29
2023-05-09T23:54:12.476Z,93.64
2023-05-09T23:56:39.148Z,94.03
2023-05-09T23:59:05.785Z,94.44
